Hua Hin, Thailand
Current Conditions -  °F | °C
As of 7:30 AM on Thursday 23 Oct 2014 (Local Time) from VTBU Reporting Station
Haze Haze  
Wind Chill: 25°   Ceiling: 12000
Heat Index: 26°   Visibility: 1.8mi
Dew Point: 24°   Wind: 3mph
Humidity: 94%   Direction: 340°NNW
Pressure: 29.88"   Gusts: NA
Location:  12.57°N, 99.95°E
Report Text: VTBU 230030Z 34003KT 3000 BR FEW020CB BKN120 25/24 Q1012 A2990 CB SE-S
Loading
Personal Weather Stations






























Interactive Weather Map New forecast layout! Learn more

10-Day Weather Forecast

Advertisements
Track Severe Weather on mobile